createdAt,value
2018-07-19T00:00:33.771Z,99.90
2018-07-19T00:03:02.771Z,99.90
2018-07-19T00:05:31.857Z,99.90
2018-07-19T00:08:01.011Z,99.90
2018-07-19T00:10:30.073Z,99.90
2018-07-19T00:12:59.066Z,99.90
2018-07-19T00:15:28.115Z,99.90
2018-07-19T00:17:57.165Z,99.90
2018-07-19T00:20:26.356Z,99.90
2018-07-19T00:22:55.653Z,99.90
2018-07-19T00:25:24.859Z,99.90
2018-07-19T00:27:53.947Z,99.90
2018-07-19T00:30:23.061Z,99.90
2018-07-19T00:32:52.861Z,99.90
2018-07-19T00:35:21.897Z,99.90
2018-07-19T00:37:50.943Z,99.90
2018-07-19T00:40:19.970Z,99.90
2018-07-19T00:42:49.036Z,99.90
2018-07-19T00:45:18.150Z,99.90
2018-07-19T00:47:47.979Z,99.90
2018-07-19T00:50:16.946Z,99.90
2018-07-19T00:52:45.949Z,99.90
2018-07-19T00:57:43.503Z,99.90
2018-07-19T01:00:12.958Z,99.90
2018-07-19T01:02:41.917Z,99.90
2018-07-19T01:05:10.923Z,99.90
2018-07-19T01:07:39.946Z,99.90
2018-07-19T01:10:09.668Z,99.90
2018-07-19T01:12:39.041Z,99.90
2018-07-19T01:15:08.198Z,99.90
2018-07-19T01:17:37.278Z,99.90
2018-07-19T01:20:06.299Z,99.90
2018-07-19T01:22:35.318Z,99.90
2018-07-19T01:25:04.853Z,99.90
2018-07-19T01:27:33.978Z,99.90
2018-07-19T01:30:03.191Z,99.90
2018-07-19T01:32:32.204Z,99.90
2018-07-19T01:35:01.479Z,99.90
2018-07-19T01:37:30.585Z,99.90
2018-07-19T01:39:59.657Z,99.90
2018-07-19T01:42:38.491Z,99.90
2018-07-19T01:45:09.128Z,99.90
2018-07-19T01:47:38.596Z,99.90
2018-07-19T01:50:08.685Z,99.90
2018-07-19T01:52:37.774Z,99.90
2018-07-19T01:55:07.274Z,99.90
2018-07-19T01:57:36.307Z,99.90
2018-07-19T02:00:06.073Z,99.90
2018-07-19T02:02:35.456Z,99.90
2018-07-19T02:07:33.743Z,99.90
2018-07-19T02:10:02.957Z,99.90
2018-07-19T02:12:32.079Z,99.90
2018-07-19T02:15:01.076Z,99.90
2018-07-19T02:17:30.070Z,99.90
2018-07-19T02:19:59.069Z,99.90
2018-07-19T02:22:28.064Z,99.90
2018-07-19T02:24:57.148Z,99.90
2018-07-19T02:27:26.197Z,99.90
2018-07-19T02:29:55.216Z,99.90
2018-07-19T02:32:24.226Z,99.90
2018-07-19T02:34:53.216Z,99.90
2018-07-19T02:37:22.215Z,99.90
2018-07-19T02:42:19.874Z,99.90
2018-07-19T02:44:49.928Z,99.90
2018-07-19T02:47:18.877Z,99.90
2018-07-19T02:49:47.951Z,99.90
2018-07-19T02:52:17.005Z,99.90
2018-07-19T02:54:47.025Z,99.90
2018-07-19T02:57:16.023Z,99.90
2018-07-19T02:59:45.548Z,99.90
2018-07-19T03:02:14.710Z,99.90
2018-07-19T03:04:43.890Z,99.90
2018-07-19T03:07:12.852Z,99.90
2018-07-19T03:09:41.973Z,99.90
2018-07-19T03:12:11.073Z,99.90
2018-07-19T03:14:40.371Z,99.90
2018-07-19T03:17:10.314Z,99.90
2018-07-19T03:19:39.548Z,99.90
2018-07-19T03:22:08.587Z,99.90
2018-07-19T03:24:37.641Z,99.90
2018-07-19T03:27:06.761Z,99.90
2018-07-19T03:32:04.577Z,99.90
2018-07-19T03:34:33.678Z,99.90
2018-07-19T03:37:02.673Z,99.90
2018-07-19T03:39:31.864Z,99.90
2018-07-19T03:42:00.860Z,99.90
2018-07-19T03:44:29.849Z,99.90
2018-07-19T03:46:58.807Z,99.90
2018-07-19T03:49:27.848Z,99.90
2018-07-19T03:51:57.030Z,99.90
2018-07-19T03:54:26.032Z,99.90
2018-07-19T03:56:55.261Z,99.90
2018-07-19T03:59:24.270Z,99.90
2018-07-19T04:01:53.242Z,99.90
2018-07-19T04:04:22.250Z,99.90
2018-07-19T04:06:51.325Z,99.90
2018-07-19T04:09:20.373Z,99.90
2018-07-19T04:11:49.364Z,99.90
2018-07-19T04:14:18.475Z,99.90
2018-07-19T04:16:48.008Z,99.90
2018-07-19T04:24:14.448Z,99.90
2018-07-19T04:26:43.422Z,99.90
2018-07-19T04:29:12.436Z,99.90
2018-07-19T04:31:41.528Z,99.90
2018-07-19T04:36:39.306Z,99.90
2018-07-19T04:39:09.067Z,99.90
2018-07-19T04:41:38.020Z,99.90
2018-07-19T04:44:07.321Z,99.90
2018-07-19T04:46:36.655Z,99.90
2018-07-19T04:49:06.036Z,99.90
2018-07-19T04:51:35.044Z,99.90
2018-07-19T04:54:04.105Z,99.90
2018-07-19T04:56:33.122Z,99.90
2018-07-19T04:59:02.187Z,99.90
2018-07-19T05:03:59.887Z,99.90
2018-07-19T05:06:28.905Z,99.90
2018-07-19T05:08:57.905Z,99.90
2018-07-19T05:11:26.916Z,99.90
2018-07-19T05:13:55.899Z,99.90
2018-07-19T05:16:25.378Z,99.90
2018-07-19T05:18:54.483Z,99.90
2018-07-19T05:21:23.464Z,99.90
2018-07-19T05:26:21.150Z,99.90
2018-07-19T05:28:50.312Z,99.90
2018-07-19T05:31:19.299Z,99.90
2018-07-19T05:33:48.412Z,99.90
2018-07-19T05:36:17.466Z,99.90
2018-07-19T05:38:46.468Z,99.90
2018-07-19T05:41:15.429Z,99.90
2018-07-19T05:43:44.373Z,99.90
2018-07-19T05:46:13.317Z,99.90
2018-07-19T05:48:42.700Z,99.90
2018-07-19T05:51:11.655Z,99.90
2018-07-19T05:53:40.692Z,99.90
2018-07-19T05:56:09.759Z,99.90
2018-07-19T05:58:38.735Z,99.90
2018-07-19T06:01:07.713Z,99.90
2018-07-19T06:03:43.336Z,99.90
2018-07-19T06:06:12.994Z,99.90
2018-07-19T06:08:42.120Z,99.90
2018-07-19T06:11:11.097Z,99.90
2018-07-19T06:13:40.108Z,99.90
2018-07-19T06:16:09.127Z,99.90
2018-07-19T06:18:38.043Z,99.90
2018-07-19T06:21:07.070Z,99.90
2018-07-19T06:23:36.092Z,99.90
2018-07-19T06:26:05.498Z,99.90
2018-07-19T06:28:34.672Z,99.90
2018-07-19T06:31:04.338Z,99.90
2018-07-19T06:33:33.381Z,99.90
2018-07-19T06:36:02.620Z,99.90
2018-07-19T06:38:31.633Z,99.90
2018-07-19T06:41:00.737Z,99.90
2018-07-19T06:43:29.770Z,99.90
2018-07-19T06:45:58.811Z,99.80
2018-07-19T06:48:27.799Z,99.20
2018-07-19T06:50:56.853Z,98.20
2018-07-19T06:53:25.912Z,97.60
2018-07-19T06:55:54.840Z,97.60
2018-07-19T06:58:23.825Z,97.50
2018-07-19T07:00:52.809Z,96.90
2018-07-19T07:03:21.797Z,95.70
2018-07-19T07:05:50.866Z,96.00
2018-07-19T07:08:19.963Z,96.30
2018-07-19T07:10:49.063Z,94.40
2018-07-19T07:13:18.168Z,94.70
2018-07-19T07:15:47.142Z,93.90
2018-07-19T07:18:16.217Z,93.40
2018-07-19T07:20:46.925Z,91.80
2018-07-19T07:23:16.120Z,90.40
2018-07-19T07:25:55.661Z,88.30
2018-07-19T07:28:25.931Z,87.10
2018-07-19T07:30:54.918Z,85.60
2018-07-19T07:33:23.928Z,89.00
2018-07-19T07:35:53.088Z,86.30
2018-07-19T07:38:22.663Z,85.50
2018-07-19T07:40:51.750Z,82.80
2018-07-19T07:43:20.816Z,80.90
2018-07-19T07:45:49.880Z,80.90
2018-07-19T07:48:18.938Z,80.90
2018-07-19T07:50:48.028Z,79.30
2018-07-19T07:53:17.089Z,75.20
2018-07-19T07:55:46.152Z,74.00
2018-07-19T07:58:15.141Z,70.90
2018-07-19T08:00:44.150Z,68.30
2018-07-19T08:03:13.227Z,62.10
2018-07-19T08:05:42.209Z,59.50
2018-07-19T08:08:11.216Z,62.10
2018-07-19T08:10:40.220Z,62.90
2018-07-19T08:13:09.228Z,60.60
2018-07-19T08:15:38.296Z,59.00
2018-07-19T08:20:35.950Z,56.10
2018-07-19T08:23:05.002Z,57.90
2018-07-19T08:25:33.993Z,60.00
2018-07-19T08:33:00.228Z,57.70
2018-07-19T08:35:29.294Z,56.10
2018-07-19T08:37:58.906Z,54.50
2018-07-19T08:40:27.924Z,53.10
2018-07-19T08:42:56.914Z,53.20
2018-07-19T08:45:25.894Z,53.60
2018-07-19T08:47:54.951Z,54.60
2018-07-19T08:50:23.940Z,53.20
2018-07-19T08:52:52.980Z,51.50
2018-07-19T08:55:21.979Z,49.90
2018-07-19T08:57:51.080Z,48.80
2018-07-19T09:00:20.075Z,47.90
2018-07-19T09:02:49.052Z,47.40
2018-07-19T09:05:18.016Z,48.30
2018-07-19T09:07:46.970Z,47.00
2018-07-19T09:10:16.494Z,45.10
2018-07-19T09:12:45.552Z,45.40
2018-07-19T09:15:14.684Z,46.30
2018-07-19T09:17:43.696Z,45.30
2018-07-19T09:20:12.645Z,44.90
2018-07-19T09:22:41.697Z,45.80
2018-07-19T09:25:10.689Z,46.70
2018-07-19T09:27:39.872Z,45.90
2018-07-19T09:30:08.969Z,45.50
2018-07-19T09:32:38.026Z,44.90
2018-07-19T09:35:07.078Z,43.80
2018-07-19T09:37:36.076Z,42.60
2018-07-19T09:40:05.341Z,43.30
2018-07-19T09:42:34.466Z,45.60
2018-07-19T09:45:03.522Z,46.10
2018-07-19T09:47:32.538Z,44.40
2018-07-19T09:50:01.647Z,45.20
2018-07-19T09:52:30.675Z,43.30
2018-07-19T09:55:01.028Z,42.80
2018-07-19T09:59:59.342Z,43.40
2018-07-19T10:02:28.437Z,42.60
2018-07-19T10:04:57.531Z,43.00
2018-07-19T10:07:26.531Z,44.20
2018-07-19T10:09:56.071Z,43.20
2018-07-19T10:12:25.066Z,45.10
2018-07-19T10:14:54.090Z,44.80
2018-07-19T10:17:23.123Z,43.30
2018-07-19T10:19:52.274Z,43.00
2018-07-19T10:22:21.364Z,43.20
2018-07-19T10:24:50.547Z,42.50
2018-07-19T10:27:19.629Z,42.80
2018-07-19T10:29:49.188Z,41.60
2018-07-19T10:32:18.312Z,42.00
2018-07-19T10:34:47.286Z,43.40
2018-07-19T10:37:16.399Z,42.90
2018-07-19T10:39:46.469Z,42.30
2018-07-19T10:42:16.234Z,42.50
2018-07-19T10:44:45.576Z,42.70
2018-07-19T10:47:14.740Z,42.90
2018-07-19T10:49:46.647Z,43.20
2018-07-19T10:52:15.597Z,43.40
2018-07-19T10:54:44.617Z,42.30
2018-07-19T10:57:13.630Z,41.40
2018-07-19T10:59:42.638Z,40.60
2018-07-19T11:02:11.896Z,42.40
2018-07-19T11:04:41.355Z,42.50
2018-07-19T11:07:10.495Z,41.90
2018-07-19T11:09:39.796Z,41.50
2018-07-19T11:12:09.056Z,41.60
2018-07-19T11:14:38.041Z,41.40
2018-07-19T11:19:35.566Z,42.70
2018-07-19T11:22:04.550Z,43.90
2018-07-19T11:24:33.779Z,42.70
2018-07-19T11:27:02.760Z,42.60
2018-07-19T11:29:31.849Z,43.60
2018-07-19T11:32:00.854Z,41.70
2018-07-19T11:34:29.840Z,41.60
2018-07-19T11:36:58.802Z,40.80
2018-07-19T11:39:27.885Z,40.10
2018-07-19T11:41:57.693Z,40.80
2018-07-19T11:44:26.658Z,40.00
2018-07-19T11:46:55.615Z,40.10
2018-07-19T11:49:24.613Z,40.20
2018-07-19T11:51:53.600Z,40.00
2018-07-19T11:54:22.570Z,39.50
2018-07-19T11:56:51.605Z,39.90
2018-07-19T11:59:21.244Z,40.10
2018-07-19T12:01:50.261Z,41.70
2018-07-19T12:04:19.431Z,41.10
2018-07-19T12:06:48.444Z,41.60
2018-07-19T12:09:17.552Z,42.60
2018-07-19T12:11:46.623Z,44.90
2018-07-19T12:14:15.601Z,45.50
2018-07-19T12:16:44.571Z,44.70
2018-07-19T12:19:14.469Z,44.30
2018-07-19T12:21:43.459Z,44.60
2018-07-19T12:26:41.450Z,44.30
2018-07-19T12:29:10.429Z,42.90
2018-07-19T12:31:39.473Z,43.60
2018-07-19T12:34:08.485Z,43.50
2018-07-19T12:36:37.483Z,43.50
2018-07-19T12:41:36.354Z,45.00
2018-07-19T12:44:05.379Z,43.80
2018-07-19T12:46:34.380Z,43.20
2018-07-19T12:49:03.403Z,42.00
2018-07-19T12:51:32.465Z,42.20
2018-07-19T12:54:01.646Z,42.10
2018-07-19T12:56:31.091Z,41.60
2018-07-19T12:59:01.044Z,41.20
2018-07-19T13:01:30.174Z,42.30
2018-07-19T13:03:59.137Z,42.60
2018-07-19T13:06:28.136Z,41.90
2018-07-19T13:08:57.246Z,41.10
2018-07-19T13:11:26.220Z,40.50
2018-07-19T13:13:55.869Z,40.80
2018-07-19T13:16:24.867Z,40.60
2018-07-19T13:18:53.812Z,40.70
2018-07-19T13:21:24.057Z,41.60
2018-07-19T13:23:53.146Z,42.10
2018-07-19T13:28:50.908Z,42.10
2018-07-19T13:31:19.943Z,41.40
2018-07-19T13:33:49.068Z,41.80
2018-07-19T13:36:18.983Z,40.70
2018-07-19T13:38:49.014Z,40.60
2018-07-19T13:41:18.805Z,40.60
2018-07-19T13:43:48.010Z,41.10
2018-07-19T13:46:17.053Z,39.90
2018-07-19T13:48:46.080Z,39.50
2018-07-19T13:51:15.579Z,39.30
2018-07-19T13:53:55.925Z,39.70
2018-07-19T13:58:54.733Z,41.10
2018-07-19T14:01:23.788Z,40.80
2018-07-19T14:03:53.488Z,42.40
2018-07-19T14:06:23.806Z,43.30
2018-07-19T14:08:53.919Z,43.70
2018-07-19T14:11:24.248Z,42.70
2018-07-19T14:13:53.365Z,42.40
2018-07-19T14:16:22.656Z,41.90
2018-07-19T14:18:52.205Z,41.40
2018-07-19T14:21:21.884Z,41.70
2018-07-19T14:23:51.851Z,42.30
2018-07-19T14:26:21.187Z,41.90
2018-07-19T14:28:50.576Z,41.90
2018-07-19T14:31:19.688Z,44.10
2018-07-19T14:33:48.916Z,45.40
2018-07-19T14:36:17.857Z,44.40
2018-07-19T14:38:47.036Z,43.30
2018-07-19T14:41:16.065Z,41.60
2018-07-19T14:43:45.066Z,41.20
2018-07-19T14:46:14.033Z,40.50
2018-07-19T14:48:43.089Z,40.20
2018-07-19T14:51:12.808Z,40.00
2018-07-19T14:53:42.023Z,39.60
2018-07-19T14:56:11.378Z,40.20
2018-07-19T14:58:40.347Z,41.20
2018-07-19T15:01:09.352Z,41.10
2018-07-19T15:03:38.717Z,40.90
2018-07-19T15:06:07.745Z,41.20
2018-07-19T15:08:36.718Z,40.90
2018-07-19T15:11:05.731Z,41.30
2018-07-19T15:13:34.751Z,41.40
2018-07-19T15:16:03.804Z,41.30
2018-07-19T15:18:32.987Z,41.70
2018-07-19T15:21:01.959Z,42.00
2018-07-19T15:23:30.979Z,43.20
2018-07-19T15:25:59.969Z,43.40
2018-07-19T15:28:29.021Z,43.40
2018-07-19T15:30:58.004Z,43.70
2018-07-19T15:33:26.971Z,44.60
2018-07-19T15:35:56.421Z,44.80
2018-07-19T15:38:25.822Z,45.00
2018-07-19T15:40:54.816Z,45.60
2018-07-19T15:43:23.794Z,45.90
2018-07-19T15:45:52.774Z,46.20
2018-07-19T15:48:21.781Z,46.10
2018-07-19T15:50:50.771Z,46.20
2018-07-19T15:53:20.391Z,46.20
2018-07-19T15:55:49.544Z,46.50
2018-07-19T15:58:18.520Z,46.90
2018-07-19T16:00:47.596Z,48.00
2018-07-19T16:03:16.697Z,48.70
2018-07-19T16:05:47.176Z,48.40
2018-07-19T16:10:44.784Z,49.60
2018-07-19T16:15:42.437Z,49.30
2018-07-19T16:18:11.487Z,49.40
2018-07-19T16:20:40.542Z,49.70
2018-07-19T16:23:09.462Z,50.20
2018-07-19T16:25:38.433Z,50.20
2018-07-19T16:28:07.549Z,50.10
2018-07-19T16:30:36.555Z,50.90
2018-07-19T16:33:05.663Z,51.00
2018-07-19T16:35:34.657Z,50.60
2018-07-19T16:38:03.621Z,50.10
2018-07-19T16:40:32.599Z,50.40
2018-07-19T16:43:01.642Z,51.30
2018-07-19T16:45:30.603Z,51.60
2018-07-19T16:48:00.294Z,51.80
2018-07-19T16:50:29.671Z,52.30
2018-07-19T16:52:58.748Z,53.10
2018-07-19T16:55:27.879Z,53.30
2018-07-19T16:57:57.523Z,53.40
2018-07-19T17:00:26.559Z,53.20
2018-07-19T17:02:56.052Z,53.80
2018-07-19T17:05:25.008Z,53.60
2018-07-19T17:07:54.439Z,53.20
2018-07-19T17:10:23.432Z,53.60
2018-07-19T17:12:52.401Z,52.80
2018-07-19T17:15:21.390Z,52.90
2018-07-19T17:17:50.427Z,53.40
2018-07-19T17:20:19.606Z,53.40
2018-07-19T17:22:48.579Z,54.00
2018-07-19T17:25:17.626Z,54.30
2018-07-19T17:27:46.656Z,55.00
2018-07-19T17:30:15.670Z,55.40
2018-07-19T17:32:44.621Z,55.60
2018-07-19T17:35:13.617Z,56.00
2018-07-19T17:37:42.596Z,56.80
2018-07-19T17:40:11.602Z,56.60
2018-07-19T17:42:40.601Z,57.10
2018-07-19T17:45:09.662Z,56.90
2018-07-19T17:47:38.646Z,57.00
2018-07-19T17:50:08.138Z,57.00
2018-07-19T17:52:37.263Z,57.20
2018-07-19T17:55:06.276Z,57.20
2018-07-19T17:57:35.398Z,57.10
2018-07-19T18:00:04.990Z,56.90
2018-07-19T18:02:34.151Z,57.10
2018-07-19T18:05:03.233Z,57.80
2018-07-19T18:07:32.209Z,57.90
2018-07-19T18:12:29.783Z,58.60
2018-07-19T18:14:58.756Z,59.80
2018-07-19T18:17:27.746Z,59.40
2018-07-19T18:19:56.763Z,59.40
2018-07-19T18:22:25.749Z,59.50
2018-07-19T18:24:54.757Z,59.90
2018-07-19T18:27:24.054Z,60.30
2018-07-19T18:29:53.068Z,60.60
2018-07-19T18:32:21.983Z,60.70
2018-07-19T18:34:50.977Z,60.40
2018-07-19T18:37:20.440Z,61.70
2018-07-19T18:39:49.385Z,60.90
2018-07-19T18:42:19.364Z,61.30
2018-07-19T18:44:48.301Z,61.40
2018-07-19T18:49:46.027Z,62.50
2018-07-19T18:52:15.018Z,62.80
2018-07-19T18:54:44.317Z,63.40
2018-07-19T18:57:13.495Z,63.50
2018-07-19T18:59:42.606Z,64.10
2018-07-19T19:02:11.699Z,64.50
2018-07-19T19:04:41.288Z,65.10
2018-07-19T19:07:10.316Z,65.70
2018-07-19T19:09:39.392Z,66.20
2018-07-19T19:12:08.594Z,67.10
2018-07-19T19:14:37.651Z,67.60
2018-07-19T19:17:06.681Z,68.40
2018-07-19T19:19:35.672Z,68.80
2018-07-19T19:22:05.436Z,69.50
2018-07-19T19:24:34.472Z,70.50
2018-07-19T19:27:03.574Z,70.40
2018-07-19T19:29:32.527Z,71.30
2018-07-19T19:32:01.542Z,73.20
2018-07-19T19:34:30.623Z,73.50
2018-07-19T19:36:59.972Z,74.20
2018-07-19T19:39:28.956Z,75.50
2018-07-19T19:41:57.970Z,77.50
2018-07-19T19:44:27.011Z,77.60
2018-07-19T19:46:56.000Z,78.20
2018-07-19T19:49:25.068Z,80.20
2018-07-19T19:51:54.193Z,80.20
2018-07-19T19:54:23.419Z,80.90
2018-07-19T19:56:52.382Z,82.90
2018-07-19T19:59:21.425Z,83.40
2018-07-19T20:01:50.481Z,84.80
2018-07-19T20:04:19.467Z,85.00
2018-07-19T20:06:48.450Z,86.10
2018-07-19T20:09:17.497Z,87.80
2018-07-19T20:11:46.545Z,88.60
2018-07-19T20:14:15.891Z,89.00
2018-07-19T20:16:44.930Z,90.30
2018-07-19T20:19:13.894Z,90.60
2018-07-19T20:21:43.182Z,91.10
2018-07-19T20:24:12.821Z,91.80
2018-07-19T20:26:42.200Z,92.00
2018-07-19T20:29:11.193Z,92.10
2018-07-19T20:31:40.180Z,92.10
2018-07-19T20:34:09.176Z,92.70
2018-07-19T20:36:38.306Z,93.30
2018-07-19T20:39:07.795Z,93.40
2018-07-19T20:41:36.800Z,93.90
2018-07-19T20:44:05.786Z,93.90
2018-07-19T20:46:34.796Z,94.10
2018-07-19T20:49:03.779Z,94.70
2018-07-19T20:51:32.889Z,94.60
2018-07-19T20:54:01.909Z,95.00
2018-07-19T20:56:30.871Z,95.00
2018-07-19T20:58:59.955Z,95.10
2018-07-19T21:01:28.970Z,95.50
2018-07-19T21:03:58.191Z,95.50
2018-07-19T21:06:27.223Z,95.70
2018-07-19T21:08:56.245Z,96.60
2018-07-19T21:11:25.207Z,96.50
2018-07-19T21:13:54.336Z,96.40
2018-07-19T21:16:23.337Z,96.60
2018-07-19T21:18:52.364Z,97.10
2018-07-19T21:21:21.349Z,97.50
2018-07-19T21:23:50.299Z,97.60
2018-07-19T21:26:19.335Z,97.60
2018-07-19T21:28:48.318Z,97.70
2018-07-19T21:31:17.319Z,97.90
2018-07-19T21:33:46.305Z,98.20
2018-07-19T21:36:15.300Z,98.30
2018-07-19T21:41:13.081Z,98.60
2018-07-19T21:43:42.114Z,99.20
2018-07-19T21:46:11.200Z,99.10
2018-07-19T21:51:08.809Z,99.50
2018-07-19T21:53:37.836Z,99.90
2018-07-19T21:56:06.873Z,99.80
2018-07-19T21:58:35.996Z,99.80
2018-07-19T22:01:10.095Z,99.90
2018-07-19T22:03:39.546Z,99.90
2018-07-19T22:06:09.336Z,99.90
2018-07-19T22:08:38.347Z,99.90
2018-07-19T22:11:07.378Z,99.90
2018-07-19T22:13:36.446Z,99.90
2018-07-19T22:16:05.525Z,99.90
2018-07-19T22:18:34.623Z,99.90
2018-07-19T22:21:03.614Z,99.90
2018-07-19T22:23:32.834Z,99.90
2018-07-19T22:26:01.999Z,99.90
2018-07-19T22:28:30.964Z,99.90
2018-07-19T22:30:59.926Z,99.90
2018-07-19T22:33:28.932Z,99.90
2018-07-19T22:35:57.916Z,99.90
2018-07-19T22:38:27.016Z,99.90
2018-07-19T22:40:56.028Z,99.90
2018-07-19T22:43:25.105Z,99.90
2018-07-19T22:45:54.129Z,99.90
2018-07-19T22:48:23.148Z,99.90
2018-07-19T22:50:52.137Z,99.90
2018-07-19T22:53:21.151Z,99.90
2018-07-19T22:55:50.123Z,99.90
2018-07-19T22:58:19.159Z,99.90
2018-07-19T23:00:48.159Z,99.90
2018-07-19T23:03:17.109Z,99.90
2018-07-19T23:05:46.302Z,99.90
2018-07-19T23:08:15.298Z,99.90
2018-07-19T23:10:44.366Z,99.90
2018-07-19T23:13:13.474Z,99.90
2018-07-19T23:15:42.679Z,99.90
2018-07-19T23:18:11.684Z,99.90
2018-07-19T23:20:40.767Z,99.90
2018-07-19T23:23:09.769Z,99.90
2018-07-19T23:25:38.749Z,99.90
2018-07-19T23:28:07.809Z,99.90
2018-07-19T23:30:37.823Z,99.90
2018-07-19T23:33:06.818Z,99.90
2018-07-19T23:36:13.995Z,99.90
2018-07-19T23:39:19.104Z,99.90
2018-07-19T23:41:55.506Z,99.90
2018-07-19T23:44:29.983Z,99.90
2018-07-19T23:47:03.534Z,99.90
2018-07-19T23:52:01.110Z,99.90
2018-07-19T23:54:30.093Z,99.90
2018-07-19T23:56:59.069Z,99.90
2018-07-19T23:59:28.120Z,99.90
